Time;durP1;ratioP1;P1;durP2;ratioP2;P2;SDS_P1;SDS_P2;PMS_P1;PMS_P2;Temp;Humidity;BMP_temperature;BMP_pressure;BME280_temperature;BME280_humidity;BME280_pressure;Samples;Min_cycle;Max_cycle;Signal;HPM_P1;HPM_P2
2021/12/09 00:00:44;;;;;;;15.13;7.75;;;;;;;-0.05;54.59;100190.09;4988996;28;20467;-63
2021/12/09 00:03:12;;;;;;;12.20;7.38;;;;;;;0.09;54.12;100201.97;4971731;28;20033;-62
2021/12/09 00:05:43;;;;;;;15.73;7.90;;;;;;;-0.13;55.25;100199.53;4975252;28;20118;-62
2021/12/09 00:08:09;;;;;;;12.43;7.30;;;;;;;0.08;54.36;100196.00;4987020;28;20049;-62
2021/12/09 00:10:35;;;;;;;15.23;8.40;;;;;;;0.07;54.36;100196.84;4987569;28;20054;-62
2021/12/09 00:13:03;;;;;;;16.42;8.38;;;;;;;0.00;54.16;100198.59;4985049;28;20046;-62
2021/12/09 00:15:28;;;;;;;15.63;7.88;;;;;;;0.11;54.02;100206.25;4986433;28;20200;-63
2021/12/09 00:17:54;;;;;;;11.80;6.70;;;;;;;0.07;53.91;100204.53;4985311;28;20080;-63
2021/12/09 00:20:19;;;;;;;14.68;8.10;;;;;;;-0.01;54.42;100206.34;4987072;28;20084;-63
2021/12/09 00:22:46;;;;;;;20.77;8.70;;;;;;;-0.04;54.44;100207.19;4987675;28;20041;-64
2021/12/09 00:25:14;;;;;;;16.35;7.47;;;;;;;0.03;54.48;100205.44;4988364;28;20038;-64
2021/12/09 00:27:40;;;;;;;15.48;7.10;;;;;;;-0.08;54.17;100212.34;4988702;28;20042;-63
2021/12/09 00:30:07;;;;;;;14.10;7.75;;;;;;;-0.01;54.36;100209.75;4989162;28;20316;-63
2021/12/09 00:32:32;;;;;;;12.70;7.15;;;;;;;-0.00;54.10;100208.03;4986176;28;20044;-64
2021/12/09 00:34:58;;;;;;;18.92;8.57;;;;;;;-0.09;54.42;100214.09;4969279;28;20458;-64
2021/12/09 00:37:37;;;;;;;14.98;6.72;;;;;;;-0.09;54.74;100200.38;4987404;28;20307;-64
2021/12/09 00:40:04;;;;;;;17.38;8.00;;;;;;;-0.06;54.14;100213.19;4988358;28;20502;-63
2021/12/09 00:42:30;;;;;;;15.02;8.82;;;;;;;-0.06;54.58;100208.06;4985828;28;20068;-63
2021/12/09 00:44:55;;;;;;;24.45;9.93;;;;;;;-0.21;54.48;100209.03;4973945;28;20038;-63
2021/12/09 00:47:22;;;;;;;23.63;8.57;;;;;;;-0.10;54.64;100216.66;4985349;28;20045;-64
2021/12/09 00:49:49;;;;;;;14.88;7.72;;;;;;;-0.23;55.04;100221.88;4971060;28;20459;-64
2021/12/09 00:52:15;;;;;;;18.95;6.53;;;;;;;-0.03;54.19;100224.31;4987448;28;20042;-64
2021/12/09 00:54:42;;;;;;;14.48;8.35;;;;;;;0.00;54.33;100219.16;4970401;28;20121;-64
2021/12/09 00:57:09;;;;;;;16.13;7.40;;;;;;;-0.00;54.59;100213.16;4990600;28;20042;-63
2021/12/09 00:59:34;;;;;;;13.63;7.82;;;;;;;0.06;54.07;100215.69;4985409;28;20503;-64
2021/12/09 01:01:59;;;;;;;14.40;7.80;;;;;;;0.02;54.84;100214.84;4973070;28;20125;-64
2021/12/09 01:04:25;;;;;;;14.80;8.75;;;;;;;0.03;55.23;100220.84;4984696;28;20041;-66
2021/12/09 01:06:51;;;;;;;19.95;9.57;;;;;;;0.03;54.93;100228.56;4971435;28;20519;-66
2021/12/09 01:09:17;;;;;;;13.93;7.50;;;;;;;0.16;54.21;100219.91;4970350;28;20033;-65
2021/12/09 01:11:43;;;;;;;14.80;7.78;;;;;;;0.22;53.90;100221.59;4986512;28;20034;-66
2021/12/09 01:14:08;;;;;;;23.23;9.05;;;;;;;0.17;53.99;100220.78;4986298;28;20026;-66
2021/12/09 01:16:34;;;;;;;14.90;7.57;;;;;;;0.12;54.40;100218.22;4988008;28;20402;-65
2021/12/09 01:18:59;;;;;;;14.27;7.68;;;;;;;0.22;54.27;100225.00;4988795;28;20113;-66
2021/12/09 01:21:25;;;;;;;13.35;7.50;;;;;;;0.20;53.79;100224.16;4954793;28;20040;-66
2021/12/09 01:23:50;;;;;;;12.27;7.05;;;;;;;0.12;54.03;100228.47;4970459;28;20709;-66
2021/12/09 01:26:16;;;;;;;16.55;8.45;;;;;;;-0.01;54.78;100224.31;4970694;28;20555;-65
2021/12/09 01:28:47;;;;;;;11.73;7.22;;;;;;;-0.04;54.83;100226.91;4985569;28;20597;-66
2021/12/09 01:31:21;;;;;;;13.40;6.55;;;;;;;0.09;54.81;100219.97;4971962;28;20117;-66
2021/12/09 01:33:47;;;;;;;14.75;7.35;;;;;;;0.21;54.18;100232.72;4986647;28;20065;-66
2021/12/09 01:36:12;;;;;;;15.93;8.27;;;;;;;0.15;54.15;100225.91;4985087;28;20162;-66
2021/12/09 01:38:38;;;;;;;12.48;8.10;;;;;;;0.20;53.92;100229.28;4977932;28;20088;-66
2021/12/09 01:41:04;;;;;;;14.95;8.00;;;;;;;0.17;53.61;100231.91;4986735;28;20038;-65
2021/12/09 01:43:30;;;;;;;21.48;9.00;;;;;;;-0.00;54.17;100233.72;4975862;28;20499;-65
2021/12/09 01:46:12;;;;;;;14.55;7.90;;;;;;;-0.05;54.02;100240.63;4972232;28;20069;-65
2021/12/09 01:48:40;;;;;;;16.15;7.47;;;;;;;-0.07;54.19;100237.19;4987779;28;20129;-65
2021/12/09 01:51:06;;;;;;;13.05;7.53;;;;;;;-0.11;54.17;100240.66;4987773;28;20113;-66
2021/12/09 01:53:32;;;;;;;16.80;8.02;;;;;;;-0.04;53.69;100247.44;4986419;28;20646;-65
2021/12/09 01:55:59;;;;;;;19.05;8.93;;;;;;;-0.06;53.89;100244.88;4987646;28;20153;-65
2021/12/09 01:58:25;;;;;;;13.93;8.60;;;;;;;0.06;53.76;100249.09;4970340;28;20062;-65
2021/12/09 02:00:51;;;;;;;18.48;9.77;;;;;;;0.00;54.04;100242.28;4987218;28;20035;-66
2021/12/09 02:03:16;;;;;;;14.30;8.25;;;;;;;0.02;54.13;100244.84;4986762;28;20594;-65
2021/12/09 02:05:42;;;;;;;15.88;7.97;;;;;;;0.01;54.64;100241.44;4987300;28;20354;-64
2021/12/09 02:08:12;;;;;;;10.80;7.70;;;;;;;-0.06;54.67;100250.00;4985710;28;20521;-65
2021/12/09 02:10:37;;;;;;;17.05;8.43;;;;;;;0.35;53.70;100248.06;4986325;28;20045;-64
2021/12/09 02:13:03;;;;;;;14.30;8.60;;;;;;;0.37;53.79;100248.91;4970805;28;20046;-64
2021/12/09 02:15:29;;;;;;;16.65;8.15;;;;;;;0.28;54.05;100248.09;4985733;28;20061;-64
2021/12/09 02:17:55;;;;;;;17.17;7.35;;;;;;;0.43;53.51;100253.97;4984286;28;20133;-64
2021/12/09 02:20:28;;;;;;;13.98;8.60;;;;;;;0.48;53.36;100244.53;4988915;28;20534;-65
2021/12/09 02:22:56;;;;;;;14.18;8.48;;;;;;;0.47;53.69;100247.94;4976858;28;20038;-66
2021/12/09 02:25:23;;;;;;;21.92;8.95;;;;;;;0.60;53.23;100246.97;4972393;28;20332;-64
2021/12/09 02:27:49;;;;;;;21.50;9.18;;;;;;;0.64;53.46;100242.66;4968346;28;20226;-64
2021/12/09 02:30:15;;;;;;;13.45;8.02;;;;;;;0.73;53.05;100246.88;4971385;28;20407;-66
2021/12/09 02:32:42;;;;;;;15.88;7.95;;;;;;;0.79;53.10;100246.78;4986023;28;20034;-65
2021/12/09 02:35:08;;;;;;;18.42;8.32;;;;;;;0.87;53.00;100245.00;4986442;28;20049;-65
2021/12/09 02:37:33;;;;;;;24.00;9.57;;;;;;;0.88;52.72;100241.56;4977881;28;20046;-65
2021/12/09 02:40:00;;;;;;;16.80;9.43;;;;;;;0.81;53.07;100229.63;4981260;28;20037;-66
2021/12/09 02:42:25;;;;;;;13.52;7.78;;;;;;;0.83;53.12;100233.88;4989809;28;20076;-65
2021/12/09 02:44:52;;;;;;;18.02;8.68;;;;;;;0.85;53.10;100231.31;4989077;28;20147;-66
2021/12/09 02:47:18;;;;;;;19.13;8.95;;;;;;;0.93;52.90;100236.41;4989134;28;20039;-65
2021/12/09 02:49:43;;;;;;;17.48;8.95;;;;;;;0.94;52.98;100232.94;4976064;28;20766;-66
2021/12/09 02:52:09;;;;;;;17.80;9.77;;;;;;;0.90;52.99;100229.53;4989524;28;20061;-65
2021/12/09 02:54:34;;;;;;;13.68;8.40;;;;;;;1.01;52.89;100238.00;4974162;28;20044;-65
2021/12/09 02:57:03;;;;;;;19.73;9.35;;;;;;;0.98;52.65;100230.31;4991563;28;20042;-65
2021/12/09 02:59:29;;;;;;;13.38;7.90;;;;;;;0.94;52.87;100232.94;4988472;28;20042;-68
2021/12/09 03:02:00;;;;;;;15.90;7.13;;;;;;;0.95;53.10;100226.91;4988965;28;20030;-67
2021/12/09 03:04:36;;;;;;;14.02;7.75;;;;;;;0.98;52.85;100230.31;4974063;28;20037;-67
2021/12/09 03:07:03;;;;;;;16.20;8.90;;;;;;;0.96;52.74;100219.19;4989010;28;20414;-67
2021/12/09 03:09:29;;;;;;;19.65;8.43;;;;;;;0.90;52.93;100219.25;4988381;28;20049;-68
2021/12/09 03:11:55;;;;;;;14.43;8.43;;;;;;;1.00;52.46;100220.84;4980799;28;20037;-67
2021/12/09 03:14:24;;;;;;;11.60;8.02;;;;;;;0.96;52.36;100223.47;4973598;28;20346;-64
2021/12/09 03:16:51;;;;;;;17.48;9.05;;;;;;;0.77;52.83;100226.25;4988410;28;20034;-64
2021/12/09 03:19:17;;;;;;;15.23;8.98;;;;;;;0.74;52.99;100228.00;4989190;28;20030;-64
2021/12/09 03:21:48;;;;;;;14.05;7.53;;;;;;;0.83;52.61;100227.91;4973257;28;20110;-64
2021/12/09 03:24:19;;;;;;;14.93;7.03;;;;;;;0.79;52.49;100226.22;4989501;28;20283;-65
2021/12/09 03:26:50;;;;;;;12.32;7.32;;;;;;;0.75;52.44;100227.09;4989791;28;20034;-66
2021/12/09 03:29:17;;;;;;;8.13;5.80;;;;;;;0.68;52.46;100234.06;4989268;28;20479;-67
2021/12/09 03:31:46;;;;;;;15.02;7.40;;;;;;;0.62;52.72;100228.97;4989108;28;20530;-66
2021/12/09 03:34:13;;;;;;;14.52;8.05;;;;;;;0.57;53.04;100238.41;4990290;28;20018;-67
2021/12/09 03:36:39;;;;;;;15.93;9.10;;;;;;;0.61;53.06;100238.41;4987344;28;20491;-66
2021/12/09 03:39:09;;;;;;;15.32;8.18;;;;;;;0.61;53.06;100238.41;4973617;28;20258;-66
2021/12/09 03:41:35;;;;;;;15.80;8.77;;;;;;;0.57;52.47;100243.56;4976753;28;20423;-66
2021/12/09 03:44:00;;;;;;;18.55;10.40;;;;;;;0.50;52.88;100242.75;4974439;28;20042;-64
2021/12/09 03:46:26;;;;;;;16.80;8.35;;;;;;;0.51;52.94;100241.91;4989236;28;20038;-65
2021/12/09 03:48:51;;;;;;;17.67;9.38;;;;;;;0.41;53.26;100235.13;4975571;28;20046;-65
2021/12/09 03:51:17;;;;;;;15.50;8.48;;;;;;;0.33;53.63;100242.06;4988198;28;20049;-66
2021/12/09 03:53:43;;;;;;;13.68;9.38;;;;;;;0.43;53.71;100235.97;4987884;28;20042;-65
2021/12/09 03:56:08;;;;;;;15.55;7.93;;;;;;;0.44;53.23;100246.25;4979213;28;20121;-65
2021/12/09 03:58:33;;;;;;;25.67;10.00;;;;;;;0.35;53.87;100246.31;4975963;28;20138;-66
2021/12/09 04:00:59;;;;;;;17.67;9.43;;;;;;;0.46;53.36;100238.53;4988628;28;20034;-66
2021/12/09 04:03:24;;;;;;;16.13;8.15;;;;;;;0.38;53.53;100240.31;4985913;28;20641;-65
2021/12/09 04:05:50;;;;;;;17.08;8.18;;;;;;;0.37;53.31;100243.75;4988340;28;20305;-64
2021/12/09 04:08:16;;;;;;;12.05;8.75;;;;;;;0.39;53.38;100236.84;4987149;28;20382;-66
2021/12/09 04:10:43;;;;;;;13.52;9.52;;;;;;;0.36;53.22;100229.19;4989864;28;20124;-66
2021/12/09 04:13:08;;;;;;;19.23;9.07;;;;;;;0.22;53.78;100239.56;4985841;28;20082;-67
2021/12/09 04:15:34;;;;;;;17.30;8.68;;;;;;;0.26;53.66;100246.41;4989616;28;20117;-65
2021/12/09 04:18:00;;;;;;;14.00;8.73;;;;;;;0.23;53.71;100247.28;4987927;28;20060;-66
2021/12/09 04:20:26;;;;;;;18.88;9.45;;;;;;;0.19;53.22;100245.59;4989718;28;20030;-65
2021/12/09 04:22:52;;;;;;;15.52;8.18;;;;;;;0.16;53.55;100249.88;4973185;28;20046;-66
2021/12/09 04:25:20;;;;;;;16.60;9.27;;;;;;;0.11;53.58;100257.63;4987639;28;20561;-65
2021/12/09 04:27:47;;;;;;;20.45;9.23;;;;;;;0.12;53.55;100258.47;4985525;28;20045;-66
2021/12/09 04:30:15;;;;;;;16.05;7.53;;;;;;;0.07;53.15;100253.38;4987585;28;20038;-65
2021/12/09 04:32:41;;;;;;;15.70;8.18;;;;;;;-0.01;53.00;100255.16;4973546;28;20049;-66
2021/12/09 04:35:09;;;;;;;13.98;9.00;;;;;;;-0.10;52.81;100252.63;4989755;28;20038;-66
2021/12/09 04:37:34;;;;;;;13.13;7.97;;;;;;;-0.11;52.95;100256.06;4986929;28;20061;-67
2021/12/09 04:40:00;;;;;;;12.27;7.45;;;;;;;-0.10;53.18;100261.19;4978137;28;20040;-67
2021/12/09 04:42:27;;;;;;;15.85;8.10;;;;;;;-0.13;52.68;100250.91;4979335;28;20495;-66
2021/12/09 04:44:53;;;;;;;13.32;8.07;;;;;;;-0.27;52.96;100245.03;4980732;28;20049;-65
2021/12/09 04:47:18;;;;;;;16.17;7.47;;;;;;;-0.30;53.18;100248.47;4989865;28;20057;-65
2021/12/09 04:49:44;;;;;;;13.65;7.05;;;;;;;-0.37;53.27;100244.19;4990009;28;20037;-66
2021/12/09 04:52:10;;;;;;;14.70;8.25;;;;;;;-0.39;53.25;100251.09;4974806;28;20030;-65
2021/12/09 04:54:36;;;;;;;16.33;8.00;;;;;;;-0.40;53.60;100254.50;4987720;28;20648;-66
2021/12/09 04:57:05;;;;;;;18.40;8.88;;;;;;;-0.39;53.94;100258.78;4987760;28;20448;-65
2021/12/09 04:59:30;;;;;;;18.25;8.85;;;;;;;-0.33;54.00;100251.03;4989081;28;20042;-67
2021/12/09 05:01:56;;;;;;;15.52;7.38;;;;;;;-0.31;53.62;100257.00;4987303;28;20046;-67
2021/12/09 05:04:21;;;;;;;16.00;8.05;;;;;;;-0.27;53.23;100253.56;4976328;28;20372;-66
2021/12/09 05:06:47;;;;;;;11.25;6.82;;;;;;;-0.35;52.79;100255.31;4986849;28;20486;-64
2021/12/09 05:09:17;;;;;;;12.27;7.30;;;;;;;-0.45;52.85;100266.50;4987238;28;20035;-66
2021/12/09 05:14:08;;;;;;;15.65;7.95;;;;;;;-0.53;53.54;100263.09;4987082;28;20491;-66
2021/12/09 05:16:34;;;;;;;14.60;7.90;;;;;;;-0.56;53.02;100258.84;4988693;28;20486;-67
2021/12/09 05:19:00;;;;;;;15.63;7.50;;;;;;;-0.62;53.68;100269.97;4988620;28;20042;-67
2021/12/09 05:21:36;;;;;;;15.95;8.80;;;;;;;-0.59;54.21;100269.13;4988665;28;20041;-67
2021/12/09 05:24:03;;;;;;;21.80;10.18;;;;;;;-0.53;54.19;100273.38;4971485;28;20045;-67
2021/12/09 05:26:34;;;;;;;22.10;9.77;;;;;;;-0.49;53.88;100277.63;4974568;28;20049;-67
2021/12/09 05:28:59;;;;;;;14.63;8.38;;;;;;;-0.46;53.43;100275.03;4981895;28;20038;-67
2021/12/09 05:34:11;;;;;;;9.48;7.45;;;;;;;-0.53;53.70;100275.94;4986695;28;20507;-67
2021/12/09 05:36:37;;;;;;;19.75;9.02;;;;;;;-0.57;53.94;100268.25;4985709;28;20092;-67
2021/12/09 05:39:07;;;;;;;17.25;8.32;;;;;;;-0.63;53.52;100280.25;4974544;28;20109;-65
2021/12/09 05:41:33;;;;;;;13.40;8.52;;;;;;;-0.68;53.73;100280.28;4988193;28;20137;-67
2021/12/09 05:44:00;;;;;;;19.67;9.40;;;;;;;-0.69;53.93;100277.72;4974456;28;20038;-67
2021/12/09 05:46:26;;;;;;;11.70;8.68;;;;;;;-0.69;53.90;100281.13;4989816;28;20114;-66
2021/12/09 05:48:52;;;;;;;15.77;9.05;;;;;;;-0.71;54.02;100284.56;4986245;28;20073;-67
2021/12/09 05:51:21;;;;;;;13.95;8.93;;;;;;;-0.68;54.33;100292.22;4987781;28;20168;-66
2021/12/09 05:53:46;;;;;;;14.85;7.97;;;;;;;-0.59;54.35;100294.78;4977260;28;20348;-67
2021/12/09 05:56:12;;;;;;;15.75;7.43;;;;;;;-0.52;54.02;100290.50;4980225;28;20049;-68
2021/12/09 05:58:37;;;;;;;20.48;9.18;;;;;;;-0.50;54.02;100283.63;4986384;28;20076;-65
2021/12/09 06:01:03;;;;;;;14.18;9.30;;;;;;;-0.54;53.89;100277.66;4980378;28;20065;-64
2021/12/09 06:03:28;;;;;;;20.67;8.40;;;;;;;-0.56;54.21;100285.34;4958992;28;20944;-64
2021/12/09 06:05:54;;;;;;;16.75;8.95;;;;;;;-0.52;53.90;100275.94;4986626;28;20558;-64
2021/12/09 06:08:20;;;;;;;16.70;9.45;;;;;;;-0.65;54.45;100275.13;4985518;28;20077;-65
2021/12/09 06:10:45;;;;;;;14.60;8.25;;;;;;;-0.58;54.00;100276.81;4989153;28;20042;-65
2021/12/09 06:13:11;;;;;;;14.32;8.13;;;;;;;-0.68;54.10;100272.59;4988801;28;20500;-65
2021/12/09 06:15:36;;;;;;;13.68;8.35;;;;;;;-0.71;54.26;100271.72;4988388;28;20501;-64
2021/12/09 06:18:02;;;;;;;20.13;10.10;;;;;;;-0.82;54.27;100275.16;4967138;28;20041;-64
2021/12/09 06:20:28;;;;;;;20.73;8.55;;;;;;;-0.79;54.78;100287.16;4992268;28;20129;-65
2021/12/09 06:22:54;;;;;;;20.75;8.55;;;;;;;-0.75;54.28;100283.69;4990618;28;20326;-65
2021/12/09 06:25:20;;;;;;;17.58;8.23;;;;;;;-0.79;54.50;100287.16;4989475;28;20038;-65
2021/12/09 06:27:48;;;;;;;20.75;8.70;;;;;;;-0.76;54.06;100287.97;4991848;28;20453;-64
2021/12/09 06:30:15;;;;;;;20.77;9.77;;;;;;;-0.77;54.10;100290.56;4989514;28;20038;-64
2021/12/09 06:32:41;;;;;;;13.55;8.70;;;;;;;-0.80;54.07;100285.44;4989348;28;20038;-66
2021/12/09 06:35:07;;;;;;;17.23;8.75;;;;;;;-0.84;54.23;100278.59;4989815;28;20034;-65
2021/12/09 06:37:35;;;;;;;17.52;8.65;;;;;;;-0.88;54.40;100287.19;4989935;28;20426;-64
2021/12/09 06:40:01;;;;;;;15.18;9.50;;;;;;;-1.05;55.07;100285.47;4987728;28;20088;-64
2021/12/09 06:42:27;;;;;;;16.73;9.18;;;;;;;-0.83;54.20;100282.88;4991200;28;20048;-64
2021/12/09 06:44:52;;;;;;;15.20;8.27;;;;;;;-0.86;54.29;100290.56;4993102;28;20057;-64
2021/12/09 06:47:18;;;;;;;20.10;8.45;;;;;;;-0.85;54.09;100282.88;4988603;28;20128;-64
2021/12/09 06:49:44;;;;;;;12.70;8.20;;;;;;;-0.88;53.78;100279.47;4971755;28;20034;-65
2021/12/09 06:52:09;;;;;;;16.42;9.15;;;;;;;-0.93;54.31;100299.13;4970910;28;20034;-64
2021/12/09 06:54:34;;;;;;;16.13;8.00;;;;;;;-0.95;54.20;100291.47;4988520;28;20028;-65
2021/12/09 06:57:00;;;;;;;19.45;8.00;;;;;;;-0.90;54.49;100294.03;4959069;28;20700;-65
2021/12/09 06:59:25;;;;;;;17.35;8.38;;;;;;;-0.77;54.63;100300.84;4988993;28;20034;-65
2021/12/09 07:01:51;;;;;;;19.02;9.52;;;;;;;-0.74;54.43;100297.41;4986841;28;21904;-66
2021/12/09 07:04:16;;;;;;;24.17;10.57;;;;;;;-0.74;54.03;100294.84;4988593;28;20042;-65
2021/12/09 07:06:42;;;;;;;12.48;7.85;;;;;;;-0.77;53.85;100285.44;4989320;28;20033;-65
2021/12/09 07:09:07;;;;;;;21.30;9.70;;;;;;;-0.83;53.93;100278.59;4990240;28;20054;-66
2021/12/09 07:11:33;;;;;;;16.42;8.63;;;;;;;-0.82;54.28;100288.00;4987589;28;20454;-65
2021/12/09 07:14:01;;;;;;;18.55;9.32;;;;;;;-0.81;54.75;100294.84;4978438;28;20037;-66
2021/12/09 07:16:27;;;;;;;17.40;9.00;;;;;;;-0.73;54.86;100305.06;4990445;28;20038;-67
2021/12/09 07:18:52;;;;;;;17.25;10.15;;;;;;;-0.66;54.78;100304.22;4986831;28;20507;-67
2021/12/09 07:21:18;;;;;;;19.83;10.38;;;;;;;-0.62;54.65;100305.91;4973722;28;20128;-65
2021/12/09 07:23:43;;;;;;;20.30;9.70;;;;;;;-0.56;54.42;100313.59;4988649;28;20046;-65
2021/12/09 07:26:09;;;;;;;23.13;10.63;;;;;;;-0.91;55.05;100317.94;4989338;28;20587;-66
2021/12/09 07:28:34;;;;;;;21.52;9.90;;;;;;;-0.86;54.90;100316.22;4988651;28;20096;-65
2021/12/09 07:31:00;;;;;;;12.90;8.40;;;;;;;-0.74;54.74;100317.94;4977652;28;20022;-65
2021/12/09 07:33:26;;;;;;;17.67;10.52;;;;;;;-0.89;55.15;100329.06;4987346;28;20060;-65
2021/12/09 07:35:51;;;;;;;17.83;8.65;;;;;;;-0.80;55.05;100331.63;4987341;28;20033;-65
2021/12/09 07:38:17;;;;;;;18.17;8.98;;;;;;;-0.83;54.88;100336.75;4973667;28;20114;-64
2021/12/09 07:40:42;;;;;;;24.23;9.85;;;;;;;-0.81;54.62;100337.63;4989526;28;20042;-65
2021/12/09 07:43:08;;;;;;;19.77;10.35;;;;;;;-0.75;54.71;100337.59;4973671;28;20034;-65
2021/12/09 07:45:33;;;;;;;22.20;9.05;;;;;;;-0.89;54.95;100336.75;4972994;28;20077;-65
2021/12/09 07:47:59;;;;;;;18.67;9.00;;;;;;;-0.83;54.70;100339.34;4976406;28;20066;-65
2021/12/09 07:50:28;;;;;;;17.13;8.70;;;;;;;-0.78;54.41;100335.88;4987732;28;20041;-65
2021/12/09 07:52:54;;;;;;;16.45;8.82;;;;;;;-0.72;54.17;100335.03;4962503;28;20072;-65
2021/12/09 07:55:22;;;;;;;21.13;9.95;;;;;;;-0.80;54.27;100336.75;4990581;28;20111;-65
2021/12/09 07:57:48;;;;;;;19.38;9.65;;;;;;;-0.76;54.47;100343.59;4986083;28;20042;-65
2021/12/09 08:00:18;;;;;;;20.80;9.02;;;;;;;-0.69;54.31;100350.41;4990041;28;20414;-65
2021/12/09 08:02:47;;;;;;;18.60;9.63;;;;;;;-0.66;54.01;100350.44;4985184;28;20410;-65
2021/12/09 08:05:16;;;;;;;22.50;10.00;;;;;;;-0.61;54.39;100351.25;4986197;28;20034;-65
2021/12/09 08:07:42;;;;;;;21.20;10.88;;;;;;;-0.53;54.12;100338.41;4987360;28;20034;-65
2021/12/09 08:10:10;;;;;;;17.13;9.52;;;;;;;-0.35;53.91;100346.06;4976643;28;20423;-65
2021/12/09 08:12:37;;;;;;;19.98;9.30;;;;;;;-0.32;53.92;100347.78;4984463;28;20034;-65
2021/12/09 08:15:05;;;;;;;20.08;9.63;;;;;;;-0.42;53.61;100354.63;4973150;28;20031;-64
2021/12/09 08:17:45;;;;;;;14.82;8.80;;;;;;;-0.45;53.81;100353.81;4968626;28;20057;-65
2021/12/09 08:20:14;;;;;;;18.30;9.68;;;;;;;-0.29;53.85;100355.44;4969807;28;20034;-65
2021/12/09 08:22:42;;;;;;;26.88;10.75;;;;;;;-0.23;53.71;100357.16;4973594;28;20447;-65
2021/12/09 08:25:10;;;;;;;19.85;9.38;;;;;;;-0.21;54.16;100358.84;4987210;28;20304;-65
2021/12/09 08:27:36;;;;;;;20.60;10.20;;;;;;;-0.05;53.85;100363.94;4985091;28;20042;-64
2021/12/09 08:30:06;;;;;;;18.38;10.25;;;;;;;-0.13;53.66;100366.53;4989844;28;20369;-65
2021/12/09 08:32:35;;;;;;;20.15;10.80;;;;;;;-0.03;53.63;100357.06;4986104;28;20042;-65
2021/12/09 08:35:01;;;;;;;24.15;9.82;;;;;;;-0.09;53.38;100362.22;4987253;28;20072;-65
2021/12/09 08:37:27;;;;;;;20.92;9.43;;;;;;;-0.11;53.22;100364.81;4986441;28;20347;-65
2021/12/09 08:39:53;;;;;;;23.25;11.00;;;;;;;-0.06;53.26;100368.19;4986574;28;20514;-64
2021/12/09 08:42:18;;;;;;;16.42;9.90;;;;;;;-0.00;53.56;100367.31;4985694;28;20435;-65
2021/12/09 08:44:44;;;;;;;22.08;11.40;;;;;;;0.05;54.24;100369.03;4985453;28;20084;-65
2021/12/09 08:47:10;;;;;;;19.50;10.50;;;;;;;0.29;53.31;100364.63;4968097;28;20038;-65
2021/12/09 08:49:35;;;;;;;20.90;9.68;;;;;;;0.50;52.98;100363.63;4984866;28;20056;-65
2021/12/09 08:52:02;;;;;;;19.60;10.32;;;;;;;0.64;52.40;100366.97;4966842;28;20458;-65
2021/12/09 08:54:28;;;;;;;21.23;10.75;;;;;;;0.65;52.34;100368.66;4983600;28;20038;-65
2021/12/09 08:56:53;;;;;;;20.38;10.73;;;;;;;0.65;51.86;100367.81;4970526;28;20030;-65
2021/12/09 08:59:21;;;;;;;20.88;11.20;;;;;;;0.53;52.26;100363.63;4976212;28;20292;-65
2021/12/09 09:01:47;;;;;;;25.45;10.85;;;;;;;0.56;51.77;100357.59;4975374;28;20041;-65
2021/12/09 09:04:12;;;;;;;17.42;10.27;;;;;;;0.66;52.22;100354.94;4988677;28;20066;-65
2021/12/09 09:06:49;;;;;;;23.15;11.68;;;;;;;0.64;52.00;100356.69;4984668;28;20060;-65
2021/12/09 09:09:14;;;;;;;21.48;10.10;;;;;;;0.84;51.92;100346.25;4985089;28;20153;-65
2021/12/09 09:11:40;;;;;;;24.10;11.48;;;;;;;0.35;52.24;100353.47;4983768;28;20038;-65
2021/12/09 09:14:05;;;;;;;15.68;9.73;;;;;;;0.68;51.96;100350.66;4967201;28;20119;-65
2021/12/09 09:16:30;;;;;;;27.73;10.38;;;;;;;0.93;51.89;100353.03;4973817;28;20042;-65
2021/12/09 09:18:57;;;;;;;18.45;11.43;;;;;;;1.09;51.42;100349.44;4966751;28;20091;-65
2021/12/09 09:21:23;;;;;;;21.52;9.77;;;;;;;1.05;51.34;100342.63;4986039;28;20041;-65
2021/12/09 09:23:48;;;;;;;15.77;9.43;;;;;;;1.25;51.50;100328.72;4983946;28;20142;-65
2021/12/09 09:26:14;;;;;;;14.35;8.98;;;;;;;1.35;50.78;100334.59;4984572;28;20574;-65
2021/12/09 09:28:40;;;;;;;20.40;9.95;;;;;;;1.43;50.92;100323.38;4965974;28;20044;-65
2021/12/09 09:31:07;;;;;;;16.92;9.95;;;;;;;1.61;50.70;100324.91;4970850;28;20419;-65
2021/12/09 09:33:34;;;;;;;16.10;9.77;;;;;;;1.81;49.86;100334.97;4983260;28;20329;-65
2021/12/09 09:36:00;;;;;;;18.23;9.48;;;;;;;2.02;49.53;100338.16;4984286;28;20033;-65
2021/12/09 09:38:26;;;;;;;15.40;9.50;;;;;;;2.03;49.42;100340.72;4982539;28;20463;-65
2021/12/09 09:41:05;;;;;;;19.30;9.93;;;;;;;2.06;48.95;100347.56;4971280;28;20068;-65
2021/12/09 09:43:54;;;;;;;16.05;9.98;;;;;;;1.67;48.68;100352.34;4983863;28;20034;-65
2021/12/09 09:46:27;;;;;;;14.75;9.50;;;;;;;1.75;48.85;100347.06;4986972;28;20201;-65
2021/12/09 09:48:55;;;;;;;16.95;10.05;;;;;;;1.54;49.62;100350.75;4989522;28;20074;-65
2021/12/09 09:51:23;;;;;;;15.80;9.80;;;;;;;2.11;48.10;100348.38;4986962;28;20125;-65
2021/12/09 09:53:50;;;;;;;16.42;10.68;;;;;;;2.16;48.82;100336.25;4987637;28;20077;-65
2021/12/09 09:56:19;;;;;;;18.48;8.93;;;;;;;2.14;48.31;100345.72;4979434;28;20207;-65
2021/12/09 09:58:51;;;;;;;21.58;9.60;;;;;;;2.28;47.94;100343.81;4984734;28;20038;-65
2021/12/09 10:01:17;;;;;;;;;;;;;;;2.10;47.42;100344.06;4980658;28;20030;-65
2021/12/09 10:03:47;;;;;;;20.73;11.15;;;;;;;1.58;48.12;100337.84;4988801;28;20402;-65
2021/12/09 10:06:14;;;;;;;20.73;11.68;;;;;;;1.23;49.01;100340.75;4991025;28;20669;-65
2021/12/09 10:08:40;;;;;;;24.40;10.85;;;;;;;1.30;49.12;100334.66;4989246;28;20046;-65
2021/12/09 10:11:06;;;;;;;23.85;9.90;;;;;;;0.88;50.22;100331.59;4990930;28;20041;-65
2021/12/09 10:13:36;;;;;;;26.40;11.15;;;;;;;1.50;49.63;100335.31;4988790;28;20037;-65
2021/12/09 10:16:05;;;;;;;20.25;10.93;;;;;;;1.56;49.74;100338.72;4978236;28;20057;-65
2021/12/09 10:18:42;;;;;;;20.30;10.32;;;;;;;1.57;49.10;100332.69;4969990;28;20330;-65
2021/12/09 10:21:09;;;;;;;19.90;9.48;;;;;;;1.57;48.08;100332.69;4991764;28;20049;-65
2021/12/09 10:23:42;;;;;;;20.40;9.55;;;;;;;1.51;48.73;100331.91;4988364;28;20089;-65
2021/12/09 10:26:15;;;;;;;18.48;9.98;;;;;;;1.48;48.97;100329.38;4989335;28;20463;-65
2021/12/09 10:28:48;;;;;;;20.40;11.50;;;;;;;1.37;49.47;100332.88;4974600;28;20037;-65
2021/12/09 10:31:18;;;;;;;27.70;10.63;;;;;;;1.64;49.68;100327.47;4989338;28;20507;-65
2021/12/09 10:34:16;;;;;;;20.00;10.48;;;;;;;1.79;49.60;100338.44;4979789;28;20076;-65
2021/12/09 10:37:05;;;;;;;21.98;11.32;;;;;;;1.80;48.53;100342.75;4984391;28;20046;-65
2021/12/09 10:39:48;;;;;;;18.67;9.82;;;;;;;1.83;49.36;100332.38;4990273;28;20522;-65
2021/12/09 10:42:44;;;;;;;22.00;10.75;;;;;;;1.89;49.40;100338.31;4989335;28;20038;-65
2021/12/09 10:45:34;;;;;;;21.55;10.27;;;;;;;2.07;49.47;100336.38;4985827;28;20061;-65
2021/12/09 10:48:15;;;;;;;21.25;11.80;;;;;;;2.09;48.68;100335.47;4989823;28;20398;-65
2021/12/09 10:50:47;;;;;;;19.88;11.07;;;;;;;2.22;49.01;100331.03;4990403;28;20652;-65
2021/12/09 10:55:54;;;;;;;21.77;10.43;;;;;;;2.01;48.87;100333.88;4973837;28;20038;-65
2021/12/09 10:58:26;;;;;;;23.48;10.85;;;;;;;1.92;49.09;100334.84;4973334;28;20045;-65
2021/12/09 11:01:04;;;;;;;21.27;11.20;;;;;;;1.65;48.82;100341.19;4981145;28;20042;-65
2021/12/09 11:03:37;;;;;;;22.20;10.55;;;;;;;1.44;49.47;100339.69;4987657;28;20527;-65
2021/12/09 11:06:16;;;;;;;22.27;12.05;;;;;;;1.60;50.22;100330.09;4991401;28;20137;-66
2021/12/09 11:08:46;;;;;;;20.30;10.48;;;;;;;1.67;49.85;100332.56;4987592;28;20039;-71
2021/12/09 11:11:34;;;;;;;28.52;10.52;;;;;;;1.76;49.78;100325.63;4993409;28;20040;-66
2021/12/09 11:14:02;;;;;;;22.17;11.85;;;;;;;1.94;49.87;100326.22;4989246;28;20038;-66
2021/12/09 11:16:38;;;;;;;24.08;10.85;;;;;;;2.12;49.92;100319.97;4988690;28;20140;-66
2021/12/09 11:19:14;;;;;;;22.40;12.27;;;;;;;2.50;48.89;100323.72;4987679;28;20543;-66
2021/12/09 11:21:55;;;;;;;18.52;10.00;;;;;;;2.18;48.37;100307.88;4986852;28;20030;-66
2021/12/09 11:24:23;;;;;;;21.65;10.57;;;;;;;1.94;47.90;100315.91;4988784;28;20042;-66
2021/12/09 11:26:56;;;;;;;20.92;11.60;;;;;;;1.78;48.98;100319.56;4978635;28;20405;-66
2021/12/09 11:29:25;;;;;;;25.95;9.63;;;;;;;1.21;50.15;100316.72;4990043;28;20199;-66